Time;durP1;ratioP1;P1;durP2;ratioP2;P2;SDS_P1;SDS_P2;PMS_P1;PMS_P2;Temp;Humidity;BMP_temperature;BMP_pressure;BME280_temperature;BME280_humidity;BME280_pressure;Samples;Min_cycle;Max_cycle;Signal;HPM_P1;HPM_P2
2022/05/20 00:02:16;;;;;;;;;;;13.50;99.90;;;;;;5042914;28;19928;-65
2022/05/20 00:04:42;;;;;;;;;;;13.40;99.90;;;;;;4985261;28;19974;-65
2022/05/20 00:07:09;;;;;;;;;;;13.40;99.90;;;;;;4967376;28;20381;-66
2022/05/20 00:09:37;;;;;;;;;;;13.40;99.90;;;;;;4958993;28;19926;-65
2022/05/20 00:12:05;;;;;;;;;;;13.40;99.90;;;;;;4964252;28;19927;-65
2022/05/20 00:14:32;;;;;;;;;;;13.40;99.90;;;;;;4971998;28;20377;-65
2022/05/20 00:17:01;;;;;;;;;;;13.40;99.90;;;;;;4972137;28;20016;-65
2022/05/20 00:19:28;;;;;;;;;;;13.40;99.90;;;;;;4970746;28;19926;-65
2022/05/20 00:21:54;;;;;;;;;;;13.40;99.90;;;;;;4969250;28;19933;-65
2022/05/20 00:24:21;;;;;;;;;;;13.40;99.90;;;;;;4970955;28;20377;-65
2022/05/20 00:26:50;;;;;;;;;;;13.40;99.90;;;;;;4971904;28;20381;-65
2022/05/20 00:29:17;;;;;;;;;;;13.40;99.90;;;;;;4968732;28;19930;-65
2022/05/20 00:31:44;;;;;;;;;;;13.40;99.90;;;;;;4971157;28;19926;-65
2022/05/20 00:34:10;;;;;;;;;;;13.40;99.90;;;;;;4968102;28;19926;-65
2022/05/20 00:36:37;;;;;;;;;;;13.30;99.90;;;;;;4970641;28;19933;-65
2022/05/20 00:39:04;;;;;;;;;;;13.20;99.90;;;;;;4971216;28;19926;-65
2022/05/20 00:41:31;;;;;;;;;;;13.20;99.90;;;;;;4967298;28;19926;-65
2022/05/20 00:43:59;;;;;;;;;;;13.20;99.90;;;;;;4968455;28;20496;-65
2022/05/20 00:46:27;;;;;;;;;;;13.10;99.90;;;;;;4970636;28;19933;-64
2022/05/20 00:48:57;;;;;;;;;;;13.10;99.90;;;;;;4968201;28;19988;-64
2022/05/20 00:51:26;;;;;;;;;;;13.10;99.90;;;;;;4969057;28;19926;-64
2022/05/20 00:53:55;;;;;;;;;;;13.10;99.90;;;;;;4967845;28;19933;-63
2022/05/20 00:56:23;;;;;;;;;;;13.10;99.90;;;;;;4971272;28;19926;-63
2022/05/20 00:58:51;;;;;;;;;;;13.10;99.90;;;;;;4968514;28;19948;-64
2022/05/20 01:01:20;;;;;;;;;;;13.10;99.90;;;;;;4971384;28;20039;-65
2022/05/20 01:03:47;;;;;;;;;;;13.10;99.90;;;;;;4968156;28;19930;-65
2022/05/20 01:06:14;;;;;;;;;;;13.10;99.90;;;;;;4970628;28;19949;-63
2022/05/20 01:08:41;;;;;;;;;;;13.10;99.90;;;;;;4968002;28;19932;-63
2022/05/20 01:11:08;;;;;;;;;;;13.10;99.90;;;;;;4959560;28;20002;-64
2022/05/20 01:13:35;;;;;;;;;;;13.10;99.90;;;;;;4969250;28;20025;-63
2022/05/20 01:16:03;;;;;;;;;;;13.20;99.90;;;;;;4968152;28;19933;-63
2022/05/20 01:18:32;;;;;;;;;;;13.10;99.90;;;;;;4967986;28;19930;-64
2022/05/20 01:21:02;;;;;;;;;;;13.00;99.90;;;;;;4958341;28;20135;-64
2022/05/20 01:23:30;;;;;;;;;;;13.00;99.90;;;;;;4968904;28;19926;-64
2022/05/20 01:25:57;;;;;;;;;;;13.00;99.90;;;;;;4970588;28;20278;-63
2022/05/20 01:28:26;;;;;;;;;;;13.00;99.90;;;;;;4969243;28;20289;-63
2022/05/20 01:30:54;;;;;;;;;;;13.00;99.90;;;;;;4970450;28;19961;-64
2022/05/20 01:33:23;;;;;;;;;;;13.10;99.90;;;;;;4962796;28;20415;-63
2022/05/20 01:35:50;;;;;;;;;;;13.20;99.90;;;;;;4970569;28;19972;-64
2022/05/20 01:38:17;;;;;;;;;;;13.30;99.90;;;;;;4968554;28;19937;-64
2022/05/20 01:40:46;;;;;;;;;;;13.30;99.90;;;;;;4970907;28;19988;-64
2022/05/20 01:43:14;;;;;;;;;;;13.30;99.90;;;;;;4969019;28;19934;-65
2022/05/20 01:45:45;;;;;;;;;;;13.20;99.90;;;;;;4970911;28;19937;-64
2022/05/20 01:48:16;;;;;;;;;;;13.20;99.90;;;;;;4965715;28;20973;-64
2022/05/20 01:50:45;;;;;;;;;;;13.20;99.90;;;;;;4969799;28;19987;-64
2022/05/20 01:53:14;;;;;;;;;;;13.20;99.90;;;;;;4970232;28;19941;-64
2022/05/20 01:55:43;;;;;;;;;;;13.10;99.90;;;;;;4970097;28;20016;-64
2022/05/20 01:58:14;;;;;;;;;;;13.10;99.90;;;;;;4966489;28;20008;-64
2022/05/20 02:00:41;;;;;;;;;;;13.00;99.90;;;;;;4969208;28;19926;-64
2022/05/20 02:03:11;;;;;;;;;;;13.00;99.90;;;;;;4967707;28;20017;-64
2022/05/20 02:05:39;;;;;;;;;;;13.10;99.90;;;;;;4969930;28;19926;-64
2022/05/20 02:08:09;;;;;;;;;;;13.10;99.90;;;;;;4966587;28;19933;-65
2022/05/20 02:10:37;;;;;;;;;;;13.00;99.90;;;;;;4965984;28;20293;-64
2022/05/20 02:13:07;;;;;;;;;;;13.00;99.90;;;;;;4969290;28;19942;-64
2022/05/20 02:15:38;;;;;;;;;;;13.00;99.90;;;;;;4968971;28;19926;-64
2022/05/20 02:18:06;;;;;;;;;;;13.00;99.90;;;;;;4965211;28;19926;-64
2022/05/20 02:20:35;;;;;;;;;;;13.10;99.90;;;;;;4969729;28;19933;-64
2022/05/20 02:23:03;;;;;;;;;;;13.10;99.90;;;;;;4969905;28;19926;-64
2022/05/20 02:25:31;;;;;;;;;;;13.10;99.90;;;;;;4951430;28;20021;-65
2022/05/20 02:27:59;;;;;;;;;;;13.20;99.90;;;;;;4951453;28;20389;-65
2022/05/20 02:30:28;;;;;;;;;;;13.20;99.90;;;;;;4970165;28;20373;-65
2022/05/20 02:32:58;;;;;;;;;;;13.20;99.90;;;;;;4966767;28;22631;-64
2022/05/20 02:35:25;;;;;;;;;;;13.30;99.90;;;;;;4966004;28;19926;-64
2022/05/20 02:37:51;;;;;;;;;;;13.30;99.90;;;;;;4969032;28;19933;-64
2022/05/20 02:40:19;;;;;;;;;;;13.30;99.90;;;;;;4969573;28;19927;-64
2022/05/20 02:42:46;;;;;;;;;;;13.40;99.90;;;;;;4969680;28;20022;-64
2022/05/20 02:45:14;;;;;;;;;;;13.50;99.90;;;;;;4967694;28;19930;-64
2022/05/20 02:47:40;;;;;;;;;;;13.40;99.90;;;;;;4968892;28;19926;-64
2022/05/20 02:50:09;;;;;;;;;;;13.40;99.90;;;;;;4967681;28;20029;-64
2022/05/20 02:52:36;;;;;;;;;;;13.30;99.90;;;;;;4969295;28;20464;-64
2022/05/20 02:55:03;;;;;;;;;;;13.40;99.90;;;;;;4968805;28;20403;-64
2022/05/20 02:57:30;;;;;;;;;;;13.50;99.90;;;;;;4969350;28;20393;-64
2022/05/20 03:05:27;;;;;;;;;;;13.80;99.90;;;;;;4967471;28;19968;-64
2022/05/20 03:07:53;;;;;;;;;;;13.80;99.90;;;;;;4951165;28;20351;-64
2022/05/20 03:10:20;;;;;;;;;;;13.90;99.90;;;;;;4968608;28;20393;-64
2022/05/20 03:12:47;;;;;;;;;;;13.80;99.90;;;;;;4968188;28;19970;-64
2022/05/20 03:15:16;;;;;;;;;;;13.80;99.90;;;;;;4968351;28;20380;-65
2022/05/20 03:17:43;;;;;;;;;;;13.70;99.90;;;;;;4967315;28;19926;-64
2022/05/20 03:20:11;;;;;;;;;;;13.80;99.90;;;;;;4968151;28;19965;-65
2022/05/20 03:22:39;;;;;;;;;;;13.80;99.90;;;;;;4968255;28;19926;-64
2022/05/20 03:25:06;;;;;;;;;;;13.80;99.90;;;;;;4967716;28;19926;-65
2022/05/20 03:27:33;;;;;;;;;;;13.90;99.90;;;;;;4968865;28;20013;-65
2022/05/20 03:30:00;;;;;;;;;;;13.80;99.90;;;;;;4968038;28;20480;-64
2022/05/20 03:32:27;;;;;;;;;;;13.80;99.90;;;;;;4968747;28;20423;-64
2022/05/20 03:34:56;;;;;;;;;;;13.70;99.90;;;;;;4969167;28;20025;-64
2022/05/20 03:37:23;;;;;;;;;;;13.60;99.90;;;;;;4966931;28;19926;-64
2022/05/20 03:39:52;;;;;;;;;;;13.60;99.90;;;;;;4968384;28;19934;-65
2022/05/20 03:42:18;;;;;;;;;;;13.50;99.90;;;;;;4970273;28;19940;-63
2022/05/20 03:44:45;;;;;;;;;;;13.50;99.90;;;;;;4971741;28;19926;-63
2022/05/20 03:47:12;;;;;;;;;;;13.50;99.90;;;;;;4971405;28;19926;-64
2022/05/20 03:49:39;;;;;;;;;;;13.40;99.90;;;;;;4971041;28;20028;-64
2022/05/20 03:52:05;;;;;;;;;;;13.30;99.90;;;;;;4971686;28;19926;-64
2022/05/20 03:54:33;;;;;;;;;;;13.30;99.90;;;;;;4968685;28;19933;-65
2022/05/20 03:57:02;;;;;;;;;;;13.30;99.90;;;;;;4971428;28;19926;-65
2022/05/20 03:59:29;;;;;;;;;;;13.30;99.90;;;;;;4971094;28;20005;-65
2022/05/20 04:01:58;;;;;;;;;;;13.20;99.90;;;;;;4972724;28;19932;-64
2022/05/20 04:04:26;;;;;;;;;;;13.20;99.90;;;;;;4968088;28;20397;-64
2022/05/20 04:06:52;;;;;;;;;;;13.30;99.90;;;;;;4971803;28;19933;-65
2022/05/20 04:09:19;;;;;;;;;;;13.40;99.90;;;;;;4969554;28;20381;-65
2022/05/20 04:11:46;;;;;;;;;;;13.60;99.90;;;;;;4970199;28;19938;-64
2022/05/20 04:14:13;;;;;;;;;;;13.60;99.90;;;;;;4964636;28;20399;-65
2022/05/20 04:16:40;;;;;;;;;;;13.50;99.90;;;;;;4975123;28;20300;-64
2022/05/20 04:19:07;;;;;;;;;;;13.60;99.90;;;;;;4968143;28;20021;-64
2022/05/20 04:21:33;;;;;;;;;;;13.70;99.90;;;;;;4971016;28;19926;-64
2022/05/20 04:24:00;;;;;;;;;;;13.90;99.90;;;;;;4968526;28;20362;-65
2022/05/20 04:26:27;;;;;;;;;;;13.80;99.90;;;;;;4971431;28;19931;-64
2022/05/20 04:28:54;;;;;;;;;;;13.80;99.90;;;;;;4969182;28;19927;-65
2022/05/20 04:31:22;;;;;;;;;;;13.80;99.90;;;;;;4970970;28;20028;-64
2022/05/20 04:33:49;;;;;;;;;;;13.80;99.90;;;;;;4977987;28;20373;-65
2022/05/20 04:36:15;;;;;;;;;;;13.80;99.90;;;;;;5034295;28;19932;-64
2022/05/20 04:38:42;;;;;;;;;;;13.80;99.90;;;;;;4967661;28;19926;-64
2022/05/20 04:49:22;;;;;;;;;;;13.80;99.90;;;;;;4969841;28;19933;-65
2022/05/20 04:51:49;;;;;;;;;;;13.90;99.90;;;;;;4970022;28;20018;-64
2022/05/20 04:57:00;;;;;;;;;;;13.90;99.90;;;;;;5005454;28;20338;-65
2022/05/20 04:59:27;;;;;;;;;;;14.00;99.90;;;;;;4964462;28;19927;-64
2022/05/20 05:01:55;;;;;;;;;;;14.20;99.90;;;;;;4965163;28;19926;-65
2022/05/20 05:04:22;;;;;;;;;;;14.10;99.90;;;;;;4970754;28;19927;-65
2022/05/20 05:06:49;;;;;;;;;;;14.10;99.90;;;;;;4969850;28;20067;-65
2022/05/20 05:09:16;;;;;;;;;;;14.10;99.90;;;;;;4968649;28;19933;-64
2022/05/20 05:11:43;;;;;;;;;;;14.20;99.90;;;;;;4982460;28;20314;-65
2022/05/20 05:14:10;;;;;;;;;;;14.30;99.90;;;;;;5008009;28;19926;-64
2022/05/20 05:16:38;;;;;;;;;;;14.30;99.90;;;;;;4964073;28;19932;-64
2022/05/20 05:19:06;;;;;;;;;;;14.40;99.90;;;;;;4965999;28;19933;-65
2022/05/20 05:21:33;;;;;;;;;;;14.50;99.90;;;;;;4989812;28;19924;-65
2022/05/20 05:24:00;;;;;;;;;;;14.60;99.90;;;;;;4972836;28;19933;-64
2022/05/20 05:26:27;;;;;;;;;;;14.70;99.90;;;;;;4960727;28;19936;-65
2022/05/20 05:28:54;;;;;;;;;;;14.70;99.90;;;;;;4969333;28;20009;-64
2022/05/20 05:31:20;;;;;;;;;;;14.70;99.90;;;;;;4967247;28;20018;-65
2022/05/20 05:33:47;;;;;;;;;;;14.70;99.90;;;;;;4971406;28;20358;-64
2022/05/20 05:36:15;;;;;;;;;;;15.00;99.90;;;;;;4967314;28;19926;-65
2022/05/20 05:38:43;;;;;;;;;;;15.20;99.90;;;;;;4961227;28;19926;-64
2022/05/20 05:41:10;;;;;;;;;;;15.30;99.90;;;;;;4968584;28;19973;-65
2022/05/20 05:43:37;;;;;;;;;;;15.30;99.90;;;;;;4967454;28;20019;-65
2022/05/20 05:46:04;;;;;;;;;;;15.50;99.90;;;;;;4970501;28;19926;-65
2022/05/20 05:48:31;;;;;;;;;;;15.60;99.90;;;;;;4967745;28;19932;-65
2022/05/20 05:50:59;;;;;;;;;;;15.70;99.90;;;;;;4967713;28;20021;-64
2022/05/20 05:53:27;;;;;;;;;;;15.70;99.90;;;;;;4960489;28;20389;-65
2022/05/20 05:55:55;;;;;;;;;;;16.20;99.90;;;;;;4970365;28;20391;-65
2022/05/20 05:58:22;;;;;;;;;;;17.20;99.90;;;;;;4968915;28;20012;-64
2022/05/20 06:00:48;;;;;;;;;;;17.60;99.90;;;;;;4966124;28;19936;-64
2022/05/20 06:03:16;;;;;;;;;;;17.40;99.90;;;;;;5022384;28;20005;-65
2022/05/20 06:05:42;;;;;;;;;;;18.20;99.90;;;;;;5060880;28;19974;-64
2022/05/20 06:08:09;;;;;;;;;;;18.10;99.90;;;;;;5024132;28;19934;-64
2022/05/20 06:10:37;;;;;;;;;;;17.50;99.90;;;;;;4972525;28;19926;-64
2022/05/20 06:13:04;;;;;;;;;;;16.60;99.90;;;;;;4964092;28;19926;-65
2022/05/20 06:15:30;;;;;;;;;;;16.50;99.90;;;;;;4970008;28;19932;-64
2022/05/20 06:17:57;;;;;;;;;;;16.30;99.90;;;;;;4964207;28;19941;-64
2022/05/20 06:20:25;;;;;;;;;;;16.20;99.90;;;;;;4992802;28;19928;-64
2022/05/20 06:22:52;;;;;;;;;;;16.00;99.90;;;;;;4976853;28;19927;-64
2022/05/20 06:25:19;;;;;;;;;;;16.20;99.90;;;;;;4965095;28;19946;-64
2022/05/20 06:27:47;;;;;;;;;;;16.50;99.90;;;;;;4968582;28;19932;-64
2022/05/20 06:30:15;;;;;;;;;;;16.80;99.90;;;;;;4965174;28;19926;-64
2022/05/20 06:32:42;;;;;;;;;;;16.70;99.90;;;;;;4959065;28;19934;-64
2022/05/20 06:40:41;;;;;;;;;;;16.30;99.90;;;;;;4965564;28;19937;-64
2022/05/20 06:43:09;;;;;;;;;;;16.30;99.90;;;;;;4964715;28;20407;-64
2022/05/20 06:45:36;;;;;;;;;;;16.40;99.90;;;;;;4963652;28;19933;-65
2022/05/20 06:48:03;;;;;;;;;;;16.70;99.90;;;;;;4966593;28;19933;-64
2022/05/20 06:50:30;;;;;;;;;;;17.20;99.90;;;;;;4965986;28;19926;-63
2022/05/20 06:52:56;;;;;;;;;;;18.00;99.90;;;;;;4964823;28;19933;-63
2022/05/20 06:55:23;;;;;;;;;;;18.20;99.90;;;;;;4965939;28;20288;-63
2022/05/20 06:57:51;;;;;;;;;;;17.80;99.90;;;;;;4961160;28;19973;-63
2022/05/20 07:00:19;;;;;;;;;;;17.70;99.90;;;;;;4963501;28;19980;-63
2022/05/20 07:02:46;;;;;;;;;;;17.40;99.90;;;;;;4965077;28;19926;-63
2022/05/20 07:05:12;;;;;;;;;;;17.50;99.90;;;;;;4963163;28;20388;-63
2022/05/20 07:07:40;;;;;;;;;;;17.50;99.90;;;;;;4961574;28;19926;-63
2022/05/20 07:10:08;;;;;;;;;;;17.70;99.90;;;;;;4964233;28;20062;-63
2022/05/20 07:12:34;;;;;;;;;;;18.20;99.90;;;;;;4966661;28;19938;-64
2022/05/20 07:15:01;;;;;;;;;;;18.60;99.90;;;;;;4964980;28;20024;-64
2022/05/20 07:17:29;;;;;;;;;;;18.70;99.90;;;;;;4965695;28;19926;-63
2022/05/20 07:19:56;;;;;;;;;;;18.30;99.90;;;;;;4967243;28;19933;-63
2022/05/20 07:22:23;;;;;;;;;;;18.20;99.90;;;;;;4969461;28;19926;-64
2022/05/20 07:24:50;;;;;;;;;;;18.50;99.90;;;;;;4970002;28;19934;-65
2022/05/20 07:27:17;;;;;;;;;;;18.00;99.90;;;;;;4970681;28;19973;-64
2022/05/20 07:29:44;;;;;;;;;;;18.10;99.90;;;;;;4969499;28;19933;-64
2022/05/20 07:32:11;;;;;;;;;;;18.00;99.90;;;;;;4970755;28;19938;-64
2022/05/20 07:34:39;;;;;;;;;;;18.00;99.90;;;;;;4968815;28;20437;-64
2022/05/20 07:37:06;;;;;;;;;;;18.20;99.90;;;;;;4969350;28;20293;-65
2022/05/20 07:39:33;;;;;;;;;;;17.90;99.90;;;;;;4966429;28;19926;-65
2022/05/20 07:41:59;;;;;;;;;;;18.10;99.90;;;;;;4970285;28;20448;-65
2022/05/20 07:44:26;;;;;;;;;;;18.20;99.90;;;;;;4970549;28;19962;-65
2022/05/20 07:46:53;;;;;;;;;;;17.70;99.90;;;;;;4970270;28;19979;-66
2022/05/20 07:49:20;;;;;;;;;;;17.70;99.90;;;;;;4969644;28;19988;-65
2022/05/20 07:51:50;;;;;;;;;;;17.60;99.90;;;;;;4969814;28;20393;-66
2022/05/20 07:54:20;;;;;;;;;;;17.60;99.90;;;;;;4966583;28;19926;-65
2022/05/20 07:56:51;;;;;;;;;;;17.70;99.90;;;;;;4975678;28;19934;-65
2022/05/20 07:59:19;;;;;;;;;;;17.50;99.90;;;;;;4967152;28;19993;-64
2022/05/20 08:01:47;;;;;;;;;;;17.50;99.90;;;;;;4968958;28;19926;-65
2022/05/20 08:07:02;;;;;;;;;;;17.40;99.90;;;;;;4964565;28;19932;-64
2022/05/20 08:09:29;;;;;;;;;;;17.80;99.90;;;;;;4966395;28;19949;-64
2022/05/20 08:11:57;;;;;;;;;;;18.60;99.90;;;;;;4965463;28;19926;-64
2022/05/20 08:14:23;;;;;;;;;;;18.60;99.90;;;;;;4968234;28;19948;-65
2022/05/20 08:16:50;;;;;;;;;;;19.00;99.90;;;;;;4967741;28;19926;-64
2022/05/20 08:19:17;;;;;;;;;;;19.80;99.90;;;;;;4969119;28;19933;-65
2022/05/20 08:21:43;;;;;;;;;;;21.00;99.90;;;;;;4969583;28;20009;-63
2022/05/20 08:24:12;;;;;;;;;;;19.90;99.90;;;;;;4967767;28;19926;-65
2022/05/20 08:26:38;;;;;;;;;;;20.20;99.90;;;;;;4969894;28;20374;-65
2022/05/20 08:29:06;;;;;;;;;;;20.90;99.90;;;;;;4970343;28;19933;-65
2022/05/20 08:31:33;;;;;;;;;;;20.80;99.90;;;;;;4970733;28;19944;-65
2022/05/20 08:34:00;;;;;;;;;;;21.00;99.90;;;;;;4968963;28;20029;-64
2022/05/20 08:36:29;;;;;;;;;;;20.20;99.90;;;;;;4967849;28;20033;-64
2022/05/20 08:38:55;;;;;;;;;;;20.40;99.90;;;;;;4969765;28;20020;-65
2022/05/20 08:41:26;;;;;;;;;;;21.40;99.90;;;;;;4968524;28;19949;-65
2022/05/20 08:43:53;;;;;;;;;;;21.40;98.90;;;;;;4957344;28;19926;-63
2022/05/20 08:46:21;;;;;;;;;;;21.30;99.00;;;;;;4969648;28;20367;-65
2022/05/20 08:48:50;;;;;;;;;;;20.80;99.90;;;;;;4970099;28;20425;-64
2022/05/20 08:51:17;;;;;;;;;;;20.30;99.90;;;;;;4969447;28;19926;-64
2022/05/20 08:53:45;;;;;;;;;;;19.80;99.90;;;;;;4968602;28;19926;-64
2022/05/20 08:56:13;;;;;;;;;;;19.60;99.90;;;;;;4967091;28;19931;-64
2022/05/20 08:58:46;;;;;;;;;;;19.40;99.90;;;;;;4966563;28;19933;-64
2022/05/20 09:01:13;;;;;;;;;;;19.50;99.90;;;;;;4968767;28;19933;-64
2022/05/20 09:03:40;;;;;;;;;;;19.30;99.90;;;;;;4968639;28;19926;-64
2022/05/20 09:06:08;;;;;;;;;;;19.40;99.90;;;;;;4969609;28;19965;-64
2022/05/20 09:08:35;;;;;;;;;;;19.40;99.90;;;;;;4969026;28;20385;-64
2022/05/20 09:11:03;;;;;;;;;;;19.60;99.90;;;;;;4970212;28;20285;-64
2022/05/20 09:16:17;;;;;;;;;;;19.60;99.90;;;;;;4966198;28;20380;-64
2022/05/20 09:18:44;;;;;;;;;;;19.30;99.90;;;;;;4962061;28;20415;-63
2022/05/20 09:21:24;;;;;;;;;;;19.20;99.90;;;;;;4967759;28;19930;-63
2022/05/20 09:23:52;;;;;;;;;;;19.10;99.90;;;;;;4969382;28;19933;-65
2022/05/20 09:26:22;;;;;;;;;;;18.90;99.90;;;;;;4968868;28;20381;-64
2022/05/20 09:28:52;;;;;;;;;;;18.90;99.90;;;;;;4969189;28;20024;-64
2022/05/20 09:31:24;;;;;;;;;;;19.00;99.90;;;;;;4968632;28;19926;-64
2022/05/20 09:33:53;;;;;;;;;;;19.20;99.90;;;;;;4968939;28;20300;-64
2022/05/20 09:36:39;;;;;;;;;;;19.30;99.90;;;;;;4960037;28;19950;-65
2022/05/20 09:39:11;;;;;;;;;;;19.20;99.90;;;;;;4967775;28;19932;-64
2022/05/20 09:41:44;;;;;;;;;;;19.00;99.90;;;;;;4968980;28;19934;-64
2022/05/20 09:44:12;;;;;;;;;;;19.00;99.90;;;;;;4966890;28;19926;-64
2022/05/20 09:46:45;;;;;;;;;;;19.00;99.90;;;;;;4966193;28;19933;-64
2022/05/20 09:49:14;;;;;;;;;;;19.00;99.90;;;;;;4964732;28;19933;-64
2022/05/20 09:51:42;;;;;;;;;;;19.10;99.90;;;;;;4969050;28;19933;-64
2022/05/20 09:54:21;;;;;;;;;;;19.30;99.90;;;;;;4967105;28;20463;-64
2022/05/20 09:56:57;;;;;;;;;;;19.60;99.90;;;;;;4969931;28;19927;-64
2022/05/20 09:59:28;;;;;;;;;;;19.40;99.90;;;;;;4965189;28;19945;-64
2022/05/20 10:01:58;;;;;;;;;;;19.40;99.90;;;;;;4966860;28;20021;-62
2022/05/20 10:04:30;;;;;;;;;;;20.00;99.90;;;;;;4967850;28;20012;-62
2022/05/20 10:06:57;;;;;;;;;;;20.10;99.90;;;;;;4957534;28;19996;-63
2022/05/20 10:09:28;;;;;;;;;;;20.30;99.90;;;;;;4964107;28;19933;-63
2022/05/20 10:11:57;;;;;;;;;;;20.20;99.90;;;;;;4970184;28;20300;-63
2022/05/20 10:14:25;;;;;;;;;;;19.80;99.90;;;;;;4968265;28;19926;-63
2022/05/20 10:16:56;;;;;;;;;;;19.50;99.90;;;;;;4963334;28;20038;-63
2022/05/20 10:19:27;;;;;;;;;;;19.50;99.90;;;;;;4964010;28;19954;-63
2022/05/20 10:21:57;;;;;;;;;;;19.80;99.90;;;;;;4963476;28;19933;-63
2022/05/20 10:24:37;;;;;;;;;;;19.80;99.90;;;;;;4967246;28;19940;-63
2022/05/20 10:27:06;;;;;;;;;;;19.80;99.90;;;;;;4964210;28;19927;-63
2022/05/20 10:32:37;;;;;;;;;;;19.80;99.90;;;;;;4966209;28;19932;-63
2022/05/20 10:35:07;;;;;;;;;;;19.90;99.90;;;;;;4967545;28;20381;-64
2022/05/20 10:37:40;;;;;;;;;;;19.70;99.90;;;;;;4967599;28;19981;-62
2022/05/20 10:40:26;;;;;;;;;;;19.70;99.90;;;;;;4966471;28;20411;-64
2022/05/20 10:42:57;;;;;;;;;;;19.90;99.90;;;;;;4960301;28;19961;-64
2022/05/20 10:48:35;;;;;;;;;;;20.10;99.90;;;;;;4961214;28;19937;-63
2022/05/20 10:51:10;;;;;;;;;;;20.10;99.90;;;;;;4969399;28;19941;-64
2022/05/20 10:53:42;;;;;;;;;;;20.30;99.90;;;;;;4970950;28;19937;-63
2022/05/20 10:56:30;;;;;;;;;;;20.50;99.90;;;;;;4972659;28;20312;-63
2022/05/20 10:59:04;;;;;;;;;;;20.30;99.90;;;;;;4969378;28;19972;-63
2022/05/20 11:01:37;;;;;;;;;;;20.30;99.90;;;;;;4967195;28;20021;-63
2022/05/20 11:04:18;;;;;;;;;;;20.30;99.90;;;;;;4970246;28;19930;-63
2022/05/20 11:07:07;;;;;;;;;;;20.20;99.90;;;;;;4960030;28;19927;-63
2022/05/20 11:09:37;;;;;;;;;;;20.20;99.90;;;;;;4970653;28;19936;-63
2022/05/20 11:12:05;;;;;;;;;;;20.00;99.90;;;;;;4970687;28;19932;-63
2022/05/20 11:14:40;;;;;;;;;;;19.60;99.90;;;;;;4970318;28;20013;-63
2022/05/20 11:17:16;;;;;;;;;;;19.40;99.90;;;;;;4970011;28;19934;-63
2022/05/20 11:19:59;;;;;;;;;;;19.20;99.90;;;;;;4969890;28;20032;-63
2022/05/20 11:22:41;;;;;;;;;;;19.20;99.90;;;;;;4962285;28;19926;-63
2022/05/20 11:25:25;;;;;;;;;;;18.80;99.90;;;;;;4965379;28;19927;-63
2022/05/20 11:28:01;;;;;;;;;;;18.60;99.90;;;;;;4967507;28;19926;-64
2022/05/20 11:30:34;;;;;;;;;;;18.70;99.90;;;;;;4967412;28;19926;-63
2022/05/20 11:33:19;;;;;;;;;;;18.70;99.90;;;;;;4969769;28;19930;-62
2022/05/20 11:35:59;;;;;;;;;;;18.80;99.90;;;;;;4972116;28;20389;-62
2022/05/20 11:38:41;;;;;;;;;;;18.90;99.90;;;;;;4955856;28;19937;-64
2022/05/20 11:41:19;;;;;;;;;;;18.80;99.90;;;;;;4970142;28;19937;-64
2022/05/20 11:43:56;;;;;;;;;;;19.00;99.90;;;;;;4967427;28;20037;-63
2022/05/20 11:46:28;;;;;;;;;;;19.10;99.90;;;;;;4968967;28;19930;-63
2022/05/20 11:49:16;;;;;;;;;;;19.30;99.90;;;;;;4965379;28;19956;-63
2022/05/20 11:51:58;;;;;;;;;;;19.50;99.90;;;;;;4970034;28;19930;-63
2022/05/20 11:54:29;;;;;;;;;;;19.70;99.90;;;;;;4970013;28;19926;-63
2022/05/20 11:56:58;;;;;;;;;;;20.00;99.90;;;;;;4970182;28;19927;-63
2022/05/20 11:59:26;;;;;;;;;;;20.30;99.90;;;;;;4966732;28;19933;-64
2022/05/20 12:01:55;;;;;;;;;;;20.60;99.90;;;;;;4969653;28;20411;-64
2022/05/20 12:04:24;;;;;;;;;;;20.70;99.90;;;;;;4966078;28;19937;-64
2022/05/20 12:06:52;;;;;;;;;;;20.90;99.90;;;;;;5022751;28;19996;-63
2022/05/20 12:09:32;;;;;;;;;;;21.00;99.90;;;;;;4965473;28;19932;-64
2022/05/20 12:12:29;;;;;;;;;;;21.40;99.90;;;;;;4969384;28;19926;-64
2022/05/20 12:15:03;;;;;;;;;;;21.70;99.90;;;;;;4912187;29;19927;-64
2022/05/20 12:17:31;;;;;;;;;;;22.00;99.90;;;;;;4957707;28;20028;-63
2022/05/20 12:25:39;;;;;;;;;;;22.50;99.90;;;;;;4967079;28;19933;-64
2022/05/20 12:28:07;;;;;;;;;;;22.30;99.90;;;;;;4968728;28;19926;-63
2022/05/20 12:30:39;;;;;;;;;;;22.30;99.90;;;;;;4971211;28;19930;-64
2022/05/20 12:33:20;;;;;;;;;;;22.30;99.90;;;;;;4968284;28;19932;-63
2022/05/20 12:36:16;;;;;;;;;;;22.70;99.90;;;;;;4967981;28;19933;-65
2022/05/20 12:38:43;;;;;;;;;;;23.00;99.90;;;;;;4957201;28;20712;-64
2022/05/20 12:41:17;;;;;;;;;;;23.00;99.90;;;;;;4970281;28;19926;-64
2022/05/20 12:43:57;;;;;;;;;;;23.10;99.90;;;;;;4967368;28;19973;-63
2022/05/20 12:46:50;;;;;;;;;;;23.10;99.90;;;;;;4965823;28;20363;-63
2022/05/20 12:49:18;;;;;;;;;;;22.80;99.90;;;;;;4966672;28;19933;-62
2022/05/20 12:51:46;;;;;;;;;;;22.40;99.90;;;;;;4970334;28;20286;-61
2022/05/20 12:54:22;;;;;;;;;;;21.80;99.90;;;;;;4968650;28;19935;-62
2022/05/20 12:56:52;;;;;;;;;;;21.40;99.90;;;;;;4966630;28;19930;-62
2022/05/20 12:59:20;;;;;;;;;;;21.10;99.90;;;;;;4968692;28;19934;-63
2022/05/20 13:01:51;;;;;;;;;;;20.80;99.90;;;;;;4967716;28;20024;-62
2022/05/20 13:04:20;;;;;;;;;;;20.60;99.90;;;;;;4964475;28;20381;-64
2022/05/20 13:06:48;;;;;;;;;;;20.30;99.90;;;;;;4969249;28;20419;-65
2022/05/20 13:09:21;;;;;;;;;;;20.30;99.90;;;;;;4966800;28;19930;-64
2022/05/20 13:11:51;;;;;;;;;;;20.40;99.90;;;;;;4965223;28;19927;-64
2022/05/20 13:14:19;;;;;;;;;;;20.60;99.90;;;;;;4966054;28;21832;-63
2022/05/20 13:16:47;;;;;;;;;;;20.80;99.90;;;;;;4968852;28;19974;-63
2022/05/20 13:19:14;;;;;;;;;;;20.80;99.90;;;;;;4968123;28;20017;-65
2022/05/20 13:21:43;;;;;;;;;;;20.80;99.90;;;;;;4969637;28;20346;-64
2022/05/20 13:24:13;;;;;;;;;;;20.90;99.90;;;;;;4964664;28;19926;-65
2022/05/20 13:26:41;;;;;;;;;;;20.80;99.90;;;;;;4965161;28;20020;-64
2022/05/20 13:29:11;;;;;;;;;;;20.90;99.90;;;;;;4967631;28;19934;-64
2022/05/20 13:31:38;;;;;;;;;;;21.00;99.90;;;;;;4969515;28;20073;-63
2022/05/20 13:34:05;;;;;;;;;;;20.90;99.90;;;;;;4967072;28;19934;-64
2022/05/20 13:36:34;;;;;;;;;;;20.80;99.90;;;;;;4969120;28;19926;-63
2022/05/20 13:39:01;;;;;;;;;;;20.50;99.90;;;;;;4965888;28;19991;-64
2022/05/20 13:41:29;;;;;;;;;;;20.30;99.90;;;;;;4963943;28;20119;-63
2022/05/20 13:43:56;;;;;;;;;;;20.10;99.90;;;;;;4967591;28;19932;-64
2022/05/20 13:49:15;;;;;;;;;;;19.00;99.90;;;;;;4966608;28;19933;-63
2022/05/20 13:51:43;;;;;;;;;;;18.00;99.90;;;;;;4970007;28;20325;-64
2022/05/20 13:54:11;;;;;;;;;;;17.20;99.90;;;;;;4967618;28;19926;-65
2022/05/20 13:56:39;;;;;;;;;;;17.00;99.90;;;;;;4967547;28;19926;-66
2022/05/20 13:59:06;;;;;;;;;;;16.70;99.90;;;;;;4961124;28;19926;-66
2022/05/20 14:01:39;;;;;;;;;;;16.40;99.90;;;;;;4953849;28;20128;-66
2022/05/20 14:04:11;;;;;;;;;;;16.30;99.90;;;;;;4958646;28;20027;-67
2022/05/20 14:06:49;;;;;;;;;;;16.00;99.90;;;;;;4969501;28;19953;-67
2022/05/20 14:12:03;;;;;;;;;;;15.70;99.90;;;;;;4969466;28;19934;-67
2022/05/20 14:14:31;;;;;;;;;;;15.70;99.90;;;;;;4966308;28;19929;-66
2022/05/20 14:17:01;;;;;;;;;;;15.90;99.90;;;;;;4968443;28;20339;-66
2022/05/20 14:19:30;;;;;;;;;;;16.00;99.90;;;;;;4962360;28;20652;-69
2022/05/20 14:22:00;;;;;;;;;;;15.90;99.90;;;;;;4963068;28;19926;-66
2022/05/20 14:24:33;;;;;;;;;;;15.90;99.90;;;;;;4967752;28;19934;-68
2022/05/20 14:27:04;;;;;;;;;;;15.80;99.90;;;;;;4972649;28;19956;-67
2022/05/20 14:29:33;;;;;;;;;;;15.70;99.90;;;;;;4964972;28;20022;-66
2022/05/20 14:32:03;;;;;;;;;;;15.50;99.90;;;;;;4963809;28;20434;-67
2022/05/20 14:34:32;;;;;;;;;;;15.50;99.90;;;;;;4965563;28;19933;-67
2022/05/20 14:37:00;;;;;;;;;;;15.50;99.90;;;;;;4960554;28;19969;-67
2022/05/20 14:39:27;;;;;;;;;;;15.70;99.90;;;;;;4961300;28;19935;-66
2022/05/20 14:42:08;;;;;;;;;;;16.20;99.90;;;;;;4960517;28;19926;-66
2022/05/20 14:44:35;;;;;;;;;;;16.50;99.90;;;;;;4960235;28;19934;-65
2022/05/20 14:47:16;;;;;;;;;;;16.70;99.90;;;;;;4957380;28;19957;-66
2022/05/20 14:49:47;;;;;;;;;;;16.80;99.90;;;;;;4958201;28;19926;-66
2022/05/20 14:52:23;;;;;;;;;;;16.80;99.90;;;;;;4957016;28;20249;-66
2022/05/20 14:54:50;;;;;;;;;;;16.70;99.90;;;;;;4960028;28;20562;-66
2022/05/20 14:57:24;;;;;;;;;;;16.80;99.90;;;;;;4966264;28;19934;-65
2022/05/20 15:00:05;;;;;;;;;;;17.00;99.90;;;;;;4962650;28;19941;-65
2022/05/20 15:02:33;;;;;;;;;;;17.00;99.90;;;;;;4966727;28;19926;-66
2022/05/20 15:05:00;;;;;;;;;;;17.60;99.90;;;;;;4982040;28;19937;-66
2022/05/20 15:07:26;;;;;;;;;;;17.90;99.90;;;;;;4985318;28;20096;-66
2022/05/20 15:09:53;;;;;;;;;;;18.00;99.90;;;;;;4961424;28;20677;-66
2022/05/20 15:12:21;;;;;;;;;;;18.10;99.90;;;;;;4961547;28;20169;-66
2022/05/20 15:14:48;;;;;;;;;;;17.70;99.90;;;;;;4961818;28;20288;-66